createdAt,value
2022-11-25T00:01:29.310Z,5.78
2022-11-25T00:03:57.019Z,5.47
2022-11-25T00:06:26.190Z,5.22
2022-11-25T00:08:58.260Z,5.03
2022-11-25T00:11:25.151Z,5.50
2022-11-25T00:13:51.681Z,5.13
2022-11-25T00:16:20.734Z,5.32
2022-11-25T00:18:49.308Z,5.28
2022-11-25T00:21:18.341Z,5.65
2022-11-25T00:23:49.914Z,4.78
2022-11-25T00:26:16.779Z,5.10
2022-11-25T00:28:45.458Z,4.93
2022-11-25T00:31:17.167Z,4.63
2022-11-25T00:33:44.319Z,5.63
2022-11-25T00:36:20.746Z,4.88
2022-11-25T00:38:47.232Z,5.07
2022-11-25T00:41:32.814Z,4.35
2022-11-25T00:44:17.522Z,4.95
2022-11-25T00:46:43.883Z,4.90
2022-11-25T00:49:10.305Z,5.18
2022-11-25T00:51:36.628Z,5.07
2022-11-25T00:54:03.064Z,4.85
2022-11-25T00:56:30.269Z,4.88
2022-11-25T00:58:56.684Z,4.85
2022-11-25T01:01:23.159Z,5.20
2022-11-25T01:03:51.094Z,4.47
2022-11-25T01:06:17.644Z,4.50
2022-11-25T01:08:44.121Z,4.85
2022-11-25T01:11:12.936Z,4.78
2022-11-25T01:13:39.663Z,4.97
2022-11-25T01:16:07.588Z,5.13
2022-11-25T01:18:34.755Z,4.93
2022-11-25T01:21:16.402Z,4.25
2022-11-25T01:23:43.365Z,4.05
2022-11-25T01:26:15.596Z,4.65
2022-11-25T01:28:42.095Z,4.22
2022-11-25T01:31:17.759Z,4.82
2022-11-25T01:33:45.821Z,4.00
2022-11-25T01:36:15.431Z,4.32
2022-11-25T01:38:42.762Z,4.05
2022-11-25T01:41:13.109Z,3.70
2022-11-25T01:43:40.429Z,4.28
2022-11-25T01:46:25.198Z,4.13
2022-11-25T01:48:51.488Z,4.78
2022-11-25T01:51:34.194Z,4.32
2022-11-25T01:54:03.412Z,4.38
2022-11-25T01:56:36.000Z,3.95
2022-11-25T01:59:02.869Z,3.47
2022-11-25T02:01:29.324Z,3.40
2022-11-25T02:03:57.395Z,4.05
2022-11-25T02:06:27.960Z,3.90
2022-11-25T02:08:58.668Z,3.47
2022-11-25T02:11:28.278Z,4.57
2022-11-25T02:13:54.870Z,4.43
2022-11-25T02:16:21.340Z,4.18
2022-11-25T02:18:49.603Z,4.35
2022-11-25T02:21:22.977Z,3.42
2022-11-25T02:23:57.353Z,3.78
2022-11-25T02:26:23.862Z,3.85
2022-11-25T02:28:50.371Z,4.40
2022-11-25T02:31:21.700Z,4.25
2022-11-25T02:33:48.534Z,4.45
2022-11-25T02:36:18.766Z,4.55
2022-11-25T02:38:53.950Z,4.03
2022-11-25T02:41:34.669Z,3.60
2022-11-25T02:44:01.849Z,3.67
2022-11-25T02:46:29.202Z,3.40
2022-11-25T02:49:08.867Z,3.53
2022-11-25T02:51:36.892Z,3.25
2022-11-25T02:54:03.335Z,3.63
2022-11-25T02:56:32.897Z,3.72
2022-11-25T02:59:00.087Z,3.80
2022-11-25T03:01:27.037Z,3.95
2022-11-25T03:03:53.493Z,3.60
2022-11-25T03:06:19.918Z,3.17
2022-11-25T03:08:46.219Z,3.85
2022-11-25T03:11:12.579Z,3.50
2022-11-25T03:13:39.392Z,3.35
2022-11-25T03:16:06.094Z,3.25
2022-11-25T03:18:32.485Z,3.65
2022-11-25T03:20:59.011Z,2.97
2022-11-25T03:23:25.765Z,3.30
2022-11-25T03:25:52.231Z,3.35
2022-11-25T03:28:18.564Z,3.17
2022-11-25T03:30:44.912Z,3.38
2022-11-25T03:33:11.287Z,3.38
2022-11-25T03:35:37.573Z,3.35
2022-11-25T03:38:04.079Z,3.28
2022-11-25T03:40:30.374Z,2.88
2022-11-25T03:42:56.752Z,3.40
2022-11-25T03:45:23.120Z,3.00
2022-11-25T03:47:49.460Z,3.42
2022-11-25T03:50:16.484Z,3.55
2022-11-25T03:52:42.860Z,3.08
2022-11-25T03:55:12.460Z,3.83
2022-11-25T03:57:38.935Z,2.80
2022-11-25T04:00:06.266Z,3.50
2022-11-25T04:02:32.780Z,3.20
2022-11-25T04:04:59.231Z,2.88
2022-11-25T04:07:25.841Z,3.10
2022-11-25T04:09:52.164Z,3.13
2022-11-25T04:12:36.897Z,3.50
2022-11-25T04:15:04.042Z,2.80
2022-11-25T04:17:30.456Z,3.30
2022-11-25T04:19:56.802Z,3.05
2022-11-25T04:22:23.107Z,3.30
2022-11-25T04:24:49.445Z,3.08
2022-11-25T04:27:15.799Z,2.95
2022-11-25T04:29:42.137Z,3.55
2022-11-25T04:32:08.540Z,2.90
2022-11-25T04:34:35.158Z,3.33
2022-11-25T04:37:01.624Z,3.10
2022-11-25T04:39:27.971Z,3.40
2022-11-25T04:42:17.166Z,3.05
2022-11-25T04:44:55.900Z,3.22
2022-11-25T04:49:56.832Z,2.75
2022-11-25T04:52:23.302Z,2.67
2022-11-25T04:54:49.674Z,2.97
2022-11-25T04:57:16.426Z,3.30
2022-11-25T04:59:43.779Z,3.22
2022-11-25T05:02:27.985Z,3.38
2022-11-25T05:04:56.562Z,3.53
2022-11-25T05:07:25.182Z,3.25
2022-11-25T05:09:51.650Z,3.35
2022-11-25T05:12:21.479Z,3.60
2022-11-25T05:14:48.937Z,3.50
2022-11-25T05:17:22.327Z,2.78
2022-11-25T05:19:49.966Z,3.00
2022-11-25T05:22:19.353Z,3.47
2022-11-25T05:24:45.949Z,3.10
2022-11-25T05:27:12.337Z,3.25
2022-11-25T05:29:38.914Z,3.60
2022-11-25T05:32:06.289Z,3.40
2022-11-25T05:34:32.630Z,2.72
2022-11-25T05:36:59.208Z,3.35
2022-11-25T05:39:25.947Z,3.33
2022-11-25T05:41:52.254Z,3.70
2022-11-25T05:44:22.852Z,3.45
2022-11-25T05:46:49.639Z,3.65
2022-11-25T05:49:16.540Z,3.97
2022-11-25T05:51:42.966Z,3.92
2022-11-25T05:54:09.311Z,3.55
2022-11-25T05:56:36.179Z,3.10
2022-11-25T05:59:03.725Z,3.80
2022-11-25T06:01:30.421Z,3.45
2022-11-25T06:04:00.863Z,3.10
2022-11-25T06:06:27.633Z,3.42
2022-11-25T06:08:53.996Z,3.28
2022-11-25T06:11:20.401Z,3.33
2022-11-25T06:13:46.859Z,3.28
2022-11-25T06:16:16.491Z,3.75
2022-11-25T06:18:43.257Z,3.45
2022-11-25T06:21:10.724Z,3.83
2022-11-25T06:23:38.056Z,3.67
2022-11-25T06:26:13.868Z,4.25
2022-11-25T06:31:08.901Z,3.72
2022-11-25T06:33:36.198Z,3.60
2022-11-25T06:36:05.016Z,3.65
2022-11-25T06:38:31.437Z,3.33
2022-11-25T06:41:02.296Z,3.67
2022-11-25T06:43:29.485Z,3.75
2022-11-25T06:46:08.819Z,3.65
2022-11-25T06:48:36.156Z,3.35
2022-11-25T06:51:05.621Z,3.35
2022-11-25T06:53:33.061Z,3.58
2022-11-25T06:56:05.905Z,3.97
2022-11-25T06:58:36.556Z,3.30
2022-11-25T07:01:20.802Z,4.10
2022-11-25T07:03:49.300Z,3.72
2022-11-25T07:06:16.945Z,3.95
2022-11-25T07:08:44.279Z,3.50
2022-11-25T07:11:16.520Z,3.90
2022-11-25T07:13:43.389Z,3.58
2022-11-25T07:16:11.473Z,3.50
2022-11-25T07:18:39.497Z,3.08
2022-11-25T07:21:08.119Z,3.72
2022-11-25T07:23:36.152Z,3.22
2022-11-25T07:26:14.174Z,3.28
2022-11-25T07:28:41.718Z,3.25
2022-11-25T07:31:31.324Z,3.92
2022-11-25T07:34:04.432Z,3.08
2022-11-25T07:36:32.655Z,3.97
2022-11-25T07:39:01.213Z,3.60
2022-11-25T07:41:28.814Z,3.60
2022-11-25T07:44:00.820Z,4.32
2022-11-25T07:46:34.141Z,3.58
2022-11-25T07:49:04.849Z,3.70
2022-11-25T07:51:37.408Z,2.95
2022-11-25T07:54:06.299Z,4.97
2022-11-25T07:56:35.538Z,7.70
2022-11-25T07:59:02.372Z,6.22
2022-11-25T08:01:28.850Z,6.57
2022-11-25T08:04:08.675Z,5.75
2022-11-25T08:06:39.465Z,5.75
2022-11-25T08:09:06.618Z,5.50
2022-11-25T08:11:33.286Z,5.88
2022-11-25T08:13:59.838Z,4.82
2022-11-25T08:16:28.431Z,4.32
2022-11-25T08:18:55.968Z,4.55
2022-11-25T08:21:22.581Z,3.75
2022-11-25T08:23:49.271Z,3.63
2022-11-25T08:26:37.752Z,4.25
2022-11-25T08:29:07.385Z,4.60
2022-11-25T08:31:36.841Z,5.57
2022-11-25T08:34:05.919Z,4.35
2022-11-25T08:36:34.001Z,4.43
2022-11-25T08:39:12.619Z,4.85
2022-11-25T08:41:49.302Z,4.45
2022-11-25T08:44:15.683Z,4.13
2022-11-25T08:46:42.230Z,4.15
2022-11-25T08:49:09.771Z,3.90
2022-11-25T08:51:37.869Z,3.65
2022-11-25T08:54:06.304Z,4.07
2022-11-25T08:56:32.849Z,3.75
2022-11-25T08:59:00.045Z,3.67
2022-11-25T09:01:38.507Z,3.38
2022-11-25T09:04:05.003Z,3.97
2022-11-25T09:06:31.352Z,3.67
2022-11-25T09:08:58.789Z,4.35
2022-11-25T09:11:31.391Z,4.40
2022-11-25T09:13:57.852Z,5.55
2022-11-25T09:16:26.644Z,6.65
2022-11-25T09:18:56.055Z,8.05
2022-11-25T09:21:24.671Z,9.98
2022-11-25T09:23:52.163Z,11.10
2022-11-25T09:26:24.942Z,6.50
2022-11-25T09:29:03.569Z,5.28
2022-11-25T09:31:29.985Z,5.75
2022-11-25T09:33:59.442Z,6.38
2022-11-25T09:36:25.887Z,5.32
2022-11-25T09:38:52.554Z,4.43
2022-11-25T09:41:51.973Z,4.95
2022-11-25T09:44:39.722Z,5.65
2022-11-25T09:47:20.208Z,4.72
2022-11-25T09:50:03.214Z,3.85
2022-11-25T09:52:42.702Z,5.60
2022-11-25T09:55:17.166Z,9.52
2022-11-25T09:57:59.463Z,8.55
2022-11-25T10:00:36.222Z,14.07
2022-11-25T10:03:40.303Z,9.73
2022-11-25T10:06:26.342Z,11.50
2022-11-25T10:08:57.802Z,11.13
2022-11-25T10:12:11.324Z,10.73
2022-11-25T10:14:53.839Z,8.95
2022-11-25T10:17:35.003Z,6.03
2022-11-25T10:20:12.915Z,4.57
2022-11-25T10:22:55.793Z,3.58
2022-11-25T10:25:25.407Z,4.10
2022-11-25T10:27:57.785Z,3.70
2022-11-25T10:30:48.850Z,3.83
2022-11-25T10:33:33.217Z,3.70
2022-11-25T10:36:21.638Z,3.92
2022-11-25T10:39:27.924Z,4.60
2022-11-25T10:41:59.470Z,3.88
2022-11-25T10:44:29.679Z,4.93
2022-11-25T10:47:20.408Z,4.50
2022-11-25T10:50:24.443Z,4.75
2022-11-25T10:53:12.991Z,4.75
2022-11-25T10:55:47.873Z,5.38
2022-11-25T10:58:27.853Z,4.85
2022-11-25T11:01:19.872Z,4.70
2022-11-25T11:03:52.873Z,5.03
2022-11-25T11:06:36.475Z,4.85
2022-11-25T11:09:04.030Z,5.45
2022-11-25T11:11:30.769Z,5.45
2022-11-25T11:14:29.829Z,5.35
2022-11-25T11:16:57.636Z,4.75
2022-11-25T11:19:31.099Z,4.97
2022-11-25T11:22:15.528Z,5.00
2022-11-25T11:24:42.530Z,4.80
2022-11-25T11:27:23.933Z,4.28
2022-11-25T11:30:08.611Z,4.20
2022-11-25T11:32:35.110Z,4.25
2022-11-25T11:35:04.119Z,4.47
2022-11-25T11:37:42.812Z,4.70
2022-11-25T11:40:15.220Z,4.60
2022-11-25T11:43:06.046Z,4.07
2022-11-25T11:46:00.692Z,3.70
2022-11-25T11:48:38.876Z,3.65
2022-11-25T11:51:14.026Z,3.50
2022-11-25T11:53:58.752Z,3.10
2022-11-25T11:56:37.574Z,3.25
2022-11-25T11:59:32.349Z,3.53
2022-11-25T12:02:01.657Z,2.75
2022-11-25T12:04:36.417Z,3.17
2022-11-25T12:07:12.922Z,2.78
2022-11-25T12:09:50.763Z,2.88
2022-11-25T12:12:19.479Z,2.78
2022-11-25T12:14:50.979Z,2.65
2022-11-25T12:17:23.245Z,2.75
2022-11-25T12:19:56.759Z,2.63
2022-11-25T12:22:43.437Z,2.50
2022-11-25T12:25:35.437Z,2.70
2022-11-25T12:28:08.960Z,2.80
2022-11-25T12:30:44.810Z,2.35
2022-11-25T12:33:25.891Z,2.90
2022-11-25T12:36:05.786Z,2.90
2022-11-25T12:38:46.120Z,2.40
2022-11-25T12:41:26.805Z,2.50
2022-11-25T12:44:13.153Z,2.50
2022-11-25T12:46:48.899Z,2.58
2022-11-25T12:49:40.803Z,2.67
2022-11-25T12:52:32.991Z,2.30
2022-11-25T12:55:18.820Z,2.28
2022-11-25T12:57:51.218Z,2.70
2022-11-25T13:03:33.582Z,2.60
2022-11-25T13:06:28.820Z,2.60
2022-11-25T13:09:19.488Z,2.15
2022-11-25T13:12:02.823Z,2.28
2022-11-25T13:14:57.829Z,2.15
2022-11-25T13:17:25.827Z,2.22
2022-11-25T13:20:29.307Z,2.65
2022-11-25T13:23:05.754Z,2.28
2022-11-25T13:25:32.739Z,2.72
2022-11-25T13:28:01.346Z,3.38
2022-11-25T13:30:38.086Z,2.97
2022-11-25T13:33:13.320Z,2.50
2022-11-25T13:35:42.884Z,2.42
2022-11-25T13:38:34.205Z,2.72
2022-11-25T13:41:25.246Z,2.72
2022-11-25T13:44:01.978Z,2.85
2022-11-25T13:46:39.743Z,2.85
2022-11-25T13:49:21.117Z,2.70
2022-11-25T13:51:53.495Z,2.67
2022-11-25T13:54:24.260Z,2.50
2022-11-25T13:57:17.875Z,2.75
2022-11-25T13:59:44.112Z,2.80
2022-11-25T14:02:28.901Z,2.63
2022-11-25T14:05:04.851Z,2.92
2022-11-25T14:07:40.076Z,2.50
2022-11-25T14:10:47.725Z,3.22
2022-11-25T14:13:28.942Z,2.92
2022-11-25T14:16:25.406Z,3.38
2022-11-25T14:19:49.958Z,2.85
2022-11-25T14:22:31.128Z,2.85
2022-11-25T14:25:16.642Z,3.42
2022-11-25T14:27:48.258Z,2.93
2022-11-25T14:30:16.323Z,2.95
2022-11-25T14:33:08.156Z,2.47
2022-11-25T14:35:45.619Z,3.13
2022-11-25T14:38:19.506Z,3.55
2022-11-25T14:41:03.614Z,3.42
2022-11-25T14:43:34.648Z,3.55
2022-11-25T14:46:21.192Z,3.03
2022-11-25T14:49:07.638Z,3.72
2022-11-25T14:51:41.319Z,3.08
2022-11-25T14:54:08.965Z,3.05
2022-11-25T14:56:37.167Z,3.10
2022-11-25T14:59:04.177Z,2.70
2022-11-25T15:01:33.330Z,2.88
2022-11-25T15:04:07.269Z,2.55
2022-11-25T15:06:36.362Z,3.20
2022-11-25T15:09:03.985Z,3.08
2022-11-25T15:11:33.757Z,3.05
2022-11-25T15:14:05.538Z,3.22
2022-11-25T15:16:39.457Z,2.75
2022-11-25T15:19:15.659Z,3.08
2022-11-25T15:22:14.643Z,3.17
2022-11-25T15:24:48.934Z,3.10
2022-11-25T15:27:25.318Z,3.08
2022-11-25T15:29:53.653Z,3.13
2022-11-25T15:32:25.282Z,3.00
2022-11-25T15:34:53.494Z,2.90
2022-11-25T15:37:19.934Z,2.80
2022-11-25T15:39:46.945Z,3.47
2022-11-25T15:42:19.737Z,2.78
2022-11-25T15:45:11.368Z,2.67
2022-11-25T15:47:37.837Z,3.10
2022-11-25T15:50:17.566Z,3.55
2022-11-25T15:52:48.329Z,2.92
2022-11-25T15:55:34.858Z,3.70
2022-11-25T15:58:23.507Z,3.05
2022-11-25T16:01:18.016Z,2.83
2022-11-25T16:03:45.809Z,2.92
2022-11-25T16:06:26.714Z,2.67
2022-11-25T16:09:01.285Z,3.15
2022-11-25T16:11:33.655Z,3.13
2022-11-25T16:14:26.781Z,2.72
2022-11-25T16:17:05.918Z,3.08
2022-11-25T16:19:38.734Z,2.88
2022-11-25T16:22:05.733Z,3.30
2022-11-25T16:24:41.578Z,3.45
2022-11-25T16:27:23.689Z,3.75
2022-11-25T16:29:53.394Z,3.25
2022-11-25T16:32:28.536Z,2.65
2022-11-25T16:34:56.781Z,3.35
2022-11-25T16:37:24.126Z,17.65
2022-11-25T16:39:50.494Z,10.38
2022-11-25T16:42:21.526Z,9.65
2022-11-25T16:44:50.452Z,5.65
2022-11-25T16:47:18.699Z,5.32
2022-11-25T16:49:46.352Z,4.47
2022-11-25T16:52:13.318Z,3.88
2022-11-25T16:54:39.726Z,3.85
2022-11-25T16:57:07.583Z,3.75
2022-11-25T16:59:38.026Z,4.03
2022-11-25T17:02:18.147Z,3.95
2022-11-25T17:04:45.203Z,4.00
2022-11-25T17:10:00.077Z,3.78
2022-11-25T17:12:30.777Z,3.30
2022-11-25T17:14:59.770Z,4.68
2022-11-25T17:17:27.169Z,4.05
2022-11-25T17:19:53.890Z,3.80
2022-11-25T17:22:23.285Z,4.32
2022-11-25T17:24:49.746Z,4.50
2022-11-25T17:27:21.830Z,4.78
2022-11-25T17:29:48.945Z,4.63
2022-11-25T17:32:16.470Z,5.88
2022-11-25T17:34:42.921Z,4.82
2022-11-25T17:37:20.735Z,5.15
2022-11-25T17:39:47.097Z,5.70
2022-11-25T17:42:15.913Z,7.15
2022-11-25T17:44:45.885Z,6.43
2022-11-25T17:47:16.895Z,6.78
2022-11-25T17:49:43.229Z,6.32
2022-11-25T17:52:09.585Z,6.78
2022-11-25T17:54:36.318Z,7.25
2022-11-25T17:57:04.782Z,8.23
2022-11-25T17:59:33.535Z,8.13
2022-11-25T18:02:00.089Z,7.63
2022-11-25T18:04:30.213Z,8.55
2022-11-25T18:06:56.602Z,6.85
2022-11-25T18:09:23.458Z,7.90
2022-11-25T18:11:53.187Z,7.43
2022-11-25T18:14:28.264Z,7.05
2022-11-25T18:16:55.344Z,7.17
2022-11-25T18:19:22.194Z,7.70
2022-11-25T18:21:48.542Z,7.75
2022-11-25T18:24:14.876Z,6.78
2022-11-25T18:26:47.154Z,6.45
2022-11-25T18:29:16.302Z,7.00
2022-11-25T18:31:44.632Z,6.47
2022-11-25T18:34:17.910Z,7.43
2022-11-25T18:36:44.802Z,7.90
2022-11-25T18:39:12.006Z,7.05
2022-11-25T18:41:40.311Z,7.32
2022-11-25T18:44:15.547Z,8.00
2022-11-25T18:46:41.902Z,7.60
2022-11-25T18:49:12.965Z,8.05
2022-11-25T18:51:40.152Z,8.15
2022-11-25T18:54:07.984Z,9.65
2022-11-25T18:56:36.045Z,10.95
2022-11-25T18:59:03.388Z,10.05
2022-11-25T19:01:29.947Z,11.15
2022-11-25T19:03:56.706Z,10.52
2022-11-25T19:06:23.469Z,12.65
2022-11-25T19:08:52.412Z,13.50
2022-11-25T19:11:30.030Z,14.25
2022-11-25T19:14:02.726Z,12.15
2022-11-25T19:16:29.155Z,12.30
2022-11-25T19:18:55.621Z,12.82
2022-11-25T19:21:21.956Z,14.50
2022-11-25T19:23:48.801Z,14.65
2022-11-25T19:26:19.893Z,13.90
2022-11-25T19:28:49.610Z,13.95
2022-11-25T19:31:18.659Z,12.70
2022-11-25T19:33:48.764Z,12.52
2022-11-25T19:36:24.374Z,11.80
2022-11-25T19:38:51.583Z,12.05
2022-11-25T19:41:18.296Z,10.95
2022-11-25T19:43:44.671Z,10.43
2022-11-25T19:46:33.055Z,10.85
2022-11-25T19:49:04.829Z,11.23
2022-11-25T19:51:34.264Z,11.85
2022-11-25T19:54:00.580Z,10.77
2022-11-25T19:56:27.212Z,10.82
2022-11-25T19:58:54.632Z,10.20
2022-11-25T20:01:25.423Z,10.05
2022-11-25T20:03:52.000Z,9.75
2022-11-25T20:06:19.466Z,10.23
2022-11-25T20:08:46.289Z,9.45
2022-11-25T20:11:13.901Z,9.95
2022-11-25T20:13:41.265Z,9.00
2022-11-25T20:16:26.579Z,9.90
2022-11-25T20:18:53.467Z,10.18
2022-11-25T20:21:36.414Z,9.68
2022-11-25T20:24:05.261Z,10.07
2022-11-25T20:26:35.987Z,9.32
2022-11-25T20:29:10.433Z,9.60
2022-11-25T20:31:36.813Z,9.38
2022-11-25T20:34:03.224Z,9.95
2022-11-25T20:36:32.060Z,9.77
2022-11-25T20:39:00.129Z,11.07
2022-11-25T20:41:28.309Z,10.65
2022-11-25T20:43:56.200Z,9.85
2022-11-25T20:46:26.894Z,9.63
2022-11-25T20:48:55.799Z,10.43
2022-11-25T20:51:23.798Z,10.73
2022-11-25T20:53:53.085Z,10.02
2022-11-25T20:56:21.835Z,12.07
2022-11-25T20:58:48.475Z,12.65
2022-11-25T21:01:15.482Z,15.48
2022-11-25T21:03:42.591Z,23.50
2022-11-25T21:06:27.586Z,27.73
2022-11-25T21:08:55.603Z,24.95
2022-11-25T21:11:22.801Z,23.75
2022-11-25T21:13:50.171Z,22.20
2022-11-25T21:16:16.546Z,21.05
2022-11-25T21:18:43.177Z,20.15
2022-11-25T21:21:18.696Z,20.10
2022-11-25T21:23:46.995Z,20.50
2022-11-25T21:26:26.520Z,19.75
2022-11-25T21:28:54.483Z,19.67
2022-11-25T21:31:24.390Z,20.17
2022-11-25T21:33:56.334Z,20.52
2022-11-25T21:36:27.440Z,17.45
2022-11-25T21:39:23.272Z,19.30
2022-11-25T21:41:49.878Z,17.70
2022-11-25T21:44:25.679Z,18.35
2022-11-25T21:49:20.329Z,15.50
2022-11-25T21:51:46.727Z,16.65
2022-11-25T21:54:13.039Z,15.65
2022-11-25T21:56:39.938Z,15.48
2022-11-25T21:59:07.960Z,14.90
2022-11-25T22:01:34.346Z,13.82
2022-11-25T22:04:00.708Z,14.20
2022-11-25T22:06:29.165Z,13.32
2022-11-25T22:08:56.618Z,15.30
2022-11-25T22:11:34.078Z,16.40
2022-11-25T22:14:04.621Z,22.65
2022-11-25T22:16:34.434Z,23.92
2022-11-25T22:19:01.315Z,18.88
2022-11-25T22:21:27.676Z,17.02
2022-11-25T22:23:53.990Z,18.58
2022-11-25T22:26:29.866Z,19.58
2022-11-25T22:28:57.093Z,20.17
2022-11-25T22:31:24.515Z,20.08
2022-11-25T22:33:51.193Z,19.55
2022-11-25T22:36:39.852Z,18.83
2022-11-25T22:39:14.829Z,18.98
2022-11-25T22:41:44.485Z,15.82
2022-11-25T22:44:20.775Z,14.45
2022-11-25T22:46:48.418Z,13.45
2022-11-25T22:49:33.329Z,12.57
2022-11-25T22:52:00.180Z,12.65
2022-11-25T22:54:26.530Z,12.68
2022-11-25T22:56:53.062Z,12.60
2022-11-25T22:59:19.446Z,11.57
2022-11-25T23:01:46.278Z,12.55
2022-11-25T23:04:16.948Z,11.77
2022-11-25T23:06:44.063Z,12.23
2022-11-25T23:09:15.342Z,12.45
2022-11-25T23:11:42.097Z,12.27
2022-11-25T23:14:08.754Z,12.43
2022-11-25T23:16:35.119Z,11.68
2022-11-25T23:19:04.309Z,12.25
2022-11-25T23:21:31.045Z,11.35
2022-11-25T23:23:57.536Z,12.38
2022-11-25T23:26:23.991Z,11.43
2022-11-25T23:28:50.343Z,11.50
2022-11-25T23:31:16.919Z,12.23
2022-11-25T23:33:45.997Z,12.98
2022-11-25T23:36:17.483Z,13.80
2022-11-25T23:38:56.264Z,14.30
2022-11-25T23:41:30.927Z,15.50
2022-11-25T23:44:01.931Z,16.70
2022-11-25T23:46:34.145Z,17.77
2022-11-25T23:49:02.521Z,17.15
2022-11-25T23:51:30.148Z,17.27
2022-11-25T23:53:58.100Z,18.65
2022-11-25T23:56:26.837Z,17.05
2022-11-25T23:58:53.184Z,17.30
